Time;durP1;ratioP1;P1;durP2;ratioP2;P2;SDS_P1;SDS_P2;PMS_P1;PMS_P2;Temp;Humidity;BMP_temperature;BMP_pressure;BME280_temperature;BME280_humidity;BME280_pressure;Samples;Min_cycle;Max_cycle;Signal;HPM_P1;HPM_P2
2022/09/06 00:02:21;;;;;;;3.07;2.87;;;26.80;65.90;;;;;;5050406;28;20501;-78
2022/09/06 00:04:50;;;;;;;2.77;2.57;;;26.80;65.70;;;;;;5050578;28;20953;-75
2022/09/06 00:07:18;;;;;;;2.93;2.73;;;26.80;65.90;;;;;;5050702;28;20489;-77
2022/09/06 00:09:46;;;;;;;4.13;2.60;;;26.80;65.90;;;;;;5049129;28;20454;-79
2022/09/06 00:12:14;;;;;;;2.83;2.63;;;26.80;65.90;;;;;;5049987;28;20510;-75
2022/09/06 00:14:44;;;;;;;2.60;2.40;;;26.80;65.90;;;;;;5046315;28;20483;-75
2022/09/06 00:17:12;;;;;;;3.10;2.90;;;26.80;65.70;;;;;;5049036;28;20480;-74
2022/09/06 00:19:40;;;;;;;3.23;3.00;;;26.80;65.70;;;;;;5050075;28;20480;-75
2022/09/06 00:22:08;;;;;;;3.23;3.00;;;26.80;65.70;;;;;;5048701;28;20469;-75
2022/09/06 00:24:37;;;;;;;3.40;3.20;;;26.80;65.70;;;;;;5050098;28;20497;-75
2022/09/06 00:27:06;;;;;;;2.87;2.67;;;26.80;65.90;;;;;;5050136;28;21468;-79
2022/09/06 00:29:35;;;;;;;2.57;2.40;;;26.80;65.70;;;;;;5050511;28;20461;-75
2022/09/06 00:32:04;;;;;;;2.97;2.77;;;26.80;65.70;;;;;;5049844;28;20511;-75
2022/09/06 00:34:33;;;;;;;2.40;2.30;;;26.80;65.90;;;;;;5050216;28;20452;-75
2022/09/06 00:37:01;;;;;;;2.83;2.73;;;26.80;65.90;;;;;;5049992;28;20483;-75
2022/09/06 00:39:29;;;;;;;2.90;2.70;;;26.80;65.90;;;;;;5049791;28;20449;-75
2022/09/06 00:41:57;;;;;;;2.67;2.57;;;26.80;65.90;;;;;;5049518;28;20468;-75
2022/09/06 00:44:26;;;;;;;3.33;3.03;;;26.80;65.90;;;;;;5050619;28;21009;-76
2022/09/06 00:46:55;;;;;;;2.77;2.57;;;26.70;65.90;;;;;;5049840;28;20472;-75
2022/09/06 00:49:28;;;;;;;3.33;3.13;;;26.80;65.90;;;;;;5049990;28;20458;-75
2022/09/06 00:52:01;;;;;;;3.50;3.20;;;26.70;65.90;;;;;;5048479;28;20461;-80
2022/09/06 00:54:30;;;;;;;3.07;2.87;;;26.70;65.90;;;;;;5049867;28;20477;-75
2022/09/06 00:56:59;;;;;;;2.80;2.57;;;26.70;65.90;;;;;;5049800;28;20542;-76
2022/09/06 00:59:31;;;;;;;2.80;2.60;;;26.70;65.90;;;;;;5047623;28;20454;-76
2022/09/06 01:01:59;;;;;;;2.67;2.47;;;26.70;65.90;;;;;;5048843;28;20479;-75
2022/09/06 01:04:29;;;;;;;2.50;2.30;;;26.70;65.90;;;;;;5047024;28;20458;-76
2022/09/06 01:07:05;;;;;;;2.70;2.50;;;26.70;65.90;;;;;;5050257;28;20969;-77
2022/09/06 01:09:49;;;;;;;3.03;2.80;;;26.70;65.90;;;;;;5048135;28;20448;-74
2022/09/06 01:12:35;;;;;;;3.10;2.90;;;26.70;65.90;;;;;;5047264;28;20960;-75
2022/09/06 01:15:15;;;;;;;2.67;2.47;;;26.70;65.90;;;;;;5044572;28;20457;-80
2022/09/06 01:17:58;;;;;;;2.90;2.70;;;26.70;65.90;;;;;;5049380;28;20484;-75
2022/09/06 01:20:58;;;;;;;2.67;2.47;;;26.60;66.00;;;;;;5048203;28;20470;-75
2022/09/06 01:23:59;;;;;;;3.40;3.10;;;26.70;65.90;;;;;;5048173;28;20472;-79
2022/09/06 01:27:03;;;;;;;3.30;2.97;;;26.60;66.00;;;;;;5047521;28;20520;-79
2022/09/06 01:29:39;;;;;;;2.73;2.63;;;26.70;65.90;;;;;;5049213;28;20444;-74
2022/09/06 01:32:17;;;;;;;3.33;3.07;;;26.60;65.90;;;;;;5042578;28;20490;-75
2022/09/06 01:34:50;;;;;;;2.70;2.50;;;26.60;66.00;;;;;;5051372;28;20469;-75
2022/09/06 01:37:20;;;;;;;3.30;2.70;;;26.60;66.00;;;;;;5049770;28;20937;-75
2022/09/06 01:39:48;;;;;;;3.60;2.73;;;26.60;66.00;;;;;;5047963;28;20493;-75
2022/09/06 01:42:19;;;;;;;3.27;3.00;;;26.60;66.00;;;;;;5050318;28;20479;-78
2022/09/06 01:44:53;;;;;;;2.77;2.60;;;26.60;66.00;;;;;;5046983;28;20519;-75
2022/09/06 01:47:35;;;;;;;3.30;3.00;;;26.60;66.00;;;;;;5050154;28;20449;-75
2022/09/06 01:50:25;;;;;;;2.83;2.63;;;26.60;66.00;;;;;;5042991;28;20457;-75
2022/09/06 01:53:02;;;;;;;3.00;2.80;;;26.60;66.00;;;;;;5049130;28;20461;-76
2022/09/06 01:55:35;;;;;;;2.77;2.67;;;26.60;66.00;;;;;;5055287;28;20957;-75
2022/09/06 01:58:18;;;;;;;2.30;2.20;;;26.60;66.00;;;;;;5055086;28;20426;-74
2022/09/06 02:00:55;;;;;;;2.63;2.50;;;26.60;66.00;;;;;;5054883;28;20936;-75
2022/09/06 02:03:29;;;;;;;2.90;2.70;;;26.60;66.00;;;;;;5053325;28;20552;-75
2022/09/06 02:06:06;;;;;;;2.77;2.57;;;26.60;66.00;;;;;;5055138;28;20451;-75
2022/09/06 02:08:39;;;;;;;2.70;2.50;;;26.60;66.00;;;;;;5054497;28;20484;-74
2022/09/06 02:11:09;;;;;;;2.87;2.57;;;26.60;66.00;;;;;;5055196;28;20461;-77
2022/09/06 02:13:40;;;;;;;2.90;2.70;;;26.60;66.00;;;;;;5054143;28;20513;-74
2022/09/06 02:16:13;;;;;;;2.73;2.53;;;26.60;66.00;;;;;;5051203;28;20457;-75
2022/09/06 02:18:47;;;;;;;2.80;2.60;;;26.60;66.00;;;;;;5034508;28;20466;-75
2022/09/06 02:21:19;;;;;;;2.83;2.63;;;26.60;66.00;;;;;;5034726;28;20475;-74
2022/09/06 02:23:49;;;;;;;2.50;2.40;;;26.60;66.00;;;;;;5054352;28;20523;-78
2022/09/06 02:26:20;;;;;;;2.83;2.63;;;26.50;66.00;;;;;;5054655;28;20527;-77
2022/09/06 02:28:49;;;;;;;3.30;3.10;;;26.50;66.00;;;;;;5054563;28;20484;-74
2022/09/06 02:31:22;;;;;;;2.77;2.57;;;26.50;66.00;;;;;;5054461;28;20517;-74
2022/09/06 02:33:51;;;;;;;3.00;2.70;;;26.50;66.00;;;;;;5052744;28;20601;-74
2022/09/06 02:36:20;;;;;;;2.80;2.60;;;26.50;66.00;;;;;;5054545;28;20451;-74
2022/09/06 02:38:48;;;;;;;2.90;2.60;;;26.50;66.00;;;;;;5054318;28;20480;-75
2022/09/06 02:41:21;;;;;;;2.57;2.37;;;26.50;66.00;;;;;;5054572;28;20549;-75
2022/09/06 02:43:49;;;;;;;2.33;2.13;;;26.50;66.00;;;;;;5053986;28;21017;-74
2022/09/06 02:46:19;;;;;;;2.60;2.50;;;26.50;66.00;;;;;;5053701;28;20496;-75
2022/09/06 02:48:47;;;;;;;2.77;2.57;;;26.50;66.00;;;;;;5053623;28;20436;-77
2022/09/06 02:51:15;;;;;;;2.53;2.43;;;26.50;66.00;;;;;;5053744;28;21003;-74
2022/09/06 02:53:44;;;;;;;2.73;2.53;;;26.50;66.00;;;;;;5043770;28;20902;-76
2022/09/06 02:56:12;;;;;;;3.33;3.13;;;26.50;66.00;;;;;;5054042;28;20435;-79
2022/09/06 02:58:40;;;;;;;2.50;2.40;;;26.50;66.00;;;;;;5054082;28;20511;-75
2022/09/06 03:01:09;;;;;;;2.70;2.60;;;26.50;66.00;;;;;;5053668;28;20452;-75
2022/09/06 03:03:38;;;;;;;2.37;2.27;;;26.50;66.00;;;;;;5052476;28;21044;-74
2022/09/06 03:06:07;;;;;;;2.73;2.53;;;26.50;66.00;;;;;;5054160;28;20543;-74
2022/09/06 03:08:35;;;;;;;2.60;2.40;;;26.50;66.00;;;;;;5054193;28;20482;-74
2022/09/06 03:11:06;;;;;;;3.17;2.63;;;26.50;66.00;;;;;;5053687;28;20544;-75
2022/09/06 03:13:34;;;;;;;3.20;2.90;;;26.50;66.00;;;;;;5053110;28;20489;-75
2022/09/06 03:16:05;;;;;;;2.77;2.57;;;26.50;66.00;;;;;;5050845;28;20512;-74
2022/09/06 03:18:33;;;;;;;2.70;2.53;;;26.50;66.00;;;;;;5052638;28;20480;-76
2022/09/06 03:21:06;;;;;;;2.20;2.10;;;26.50;66.00;;;;;;5053503;28;20491;-74
2022/09/06 03:23:34;;;;;;;2.93;2.73;;;26.40;66.00;;;;;;5053239;28;20547;-74
2022/09/06 03:26:05;;;;;;;3.00;2.80;;;26.40;66.00;;;;;;5053430;28;20488;-74
2022/09/06 03:28:33;;;;;;;3.07;2.57;;;26.40;66.00;;;;;;5053478;28;20444;-76
2022/09/06 03:31:02;;;;;;;2.27;2.17;;;26.40;66.00;;;;;;5049773;28;20876;-75
2022/09/06 03:33:32;;;;;;;2.77;2.57;;;26.40;66.00;;;;;;5051944;28;20453;-76
2022/09/06 03:36:05;;;;;;;2.40;2.30;;;26.40;66.00;;;;;;5053394;28;20520;-74
2022/09/06 03:38:33;;;;;;;2.10;2.00;;;26.40;66.00;;;;;;5053570;28;20962;-75
2022/09/06 03:41:02;;;;;;;2.20;2.10;;;26.40;66.00;;;;;;5046927;28;20512;-75
2022/09/06 03:43:32;;;;;;;2.73;2.63;;;26.40;66.00;;;;;;5035722;28;20504;-74
2022/09/06 03:46:01;;;;;;;3.83;2.70;;;26.40;66.10;;;;;;5053336;28;20438;-74
2022/09/06 03:48:31;;;;;;;2.40;2.30;;;26.40;66.00;;;;;;5052662;28;20483;-75
2022/09/06 03:50:59;;;;;;;2.60;2.50;;;26.40;66.10;;;;;;5053132;28;20540;-74
2022/09/06 03:53:29;;;;;;;2.70;2.50;;;26.40;66.10;;;;;;5052626;28;20556;-77
2022/09/06 03:55:58;;;;;;;2.57;2.37;;;26.40;66.10;;;;;;5053134;28;20911;-78
2022/09/06 03:58:30;;;;;;;2.60;2.40;;;26.40;66.00;;;;;;5053411;28;20452;-75
2022/09/06 04:01:06;;;;;;;2.70;2.50;;;26.40;66.10;;;;;;5052900;28;20538;-78
2022/09/06 04:03:36;;;;;;;2.63;2.50;;;26.40;66.10;;;;;;5051189;28;20451;-76
2022/09/06 04:06:07;;;;;;;2.70;2.60;;;26.40;66.10;;;;;;5053208;28;20897;-74
2022/09/06 04:08:37;;;;;;;2.60;2.40;;;26.30;66.10;;;;;;5052793;28;20908;-74
2022/09/06 04:11:08;;;;;;;2.57;2.47;;;26.40;66.10;;;;;;5052667;28;20491;-80
2022/09/06 04:13:37;;;;;;;2.87;2.67;;;26.30;66.10;;;;;;5052688;28;20496;-74
2022/09/06 04:16:08;;;;;;;2.27;2.17;;;26.30;66.10;;;;;;5050365;28;20565;-74
2022/09/06 04:18:36;;;;;;;2.30;2.20;;;26.30;66.10;;;;;;5051227;28;20460;-74
2022/09/06 04:21:07;;;;;;;3.10;2.90;;;26.30;66.10;;;;;;5052720;28;20448;-74
2022/09/06 04:23:36;;;;;;;2.73;2.63;;;26.30;66.10;;;;;;5052094;28;20460;-74
2022/09/06 04:26:07;;;;;;;2.33;2.23;;;26.30;66.10;;;;;;5052239;28;20542;-74
2022/09/06 04:28:35;;;;;;;2.50;2.40;;;26.30;66.10;;;;;;5051924;28;20999;-75
2022/09/06 04:31:06;;;;;;;2.53;2.33;;;26.30;66.10;;;;;;5050899;28;20495;-76
2022/09/06 04:33:36;;;;;;;2.77;2.50;;;26.30;66.10;;;;;;5053128;28;20452;-76
2022/09/06 04:36:09;;;;;;;2.50;2.40;;;26.30;66.10;;;;;;5044977;28;20475;-74
2022/09/06 04:38:40;;;;;;;2.30;2.20;;;26.30;66.20;;;;;;5052302;28;20464;-75
2022/09/06 04:41:10;;;;;;;2.37;2.17;;;26.30;66.20;;;;;;5050643;28;21020;-75
2022/09/06 04:43:38;;;;;;;2.60;2.50;;;26.30;66.20;;;;;;5052071;28;20902;-78
2022/09/06 04:46:10;;;;;;;2.83;2.47;;;26.30;66.20;;;;;;5050373;28;20510;-75
2022/09/06 04:48:38;;;;;;;2.47;2.37;;;26.30;66.10;;;;;;5051110;28;20473;-79
2022/09/06 04:51:06;;;;;;;2.40;2.30;;;26.30;66.10;;;;;;5051343;28;20494;-74
2022/09/06 04:53:34;;;;;;;2.70;2.53;;;26.30;66.10;;;;;;5051892;28;20530;-74
2022/09/06 04:56:07;;;;;;;2.40;2.30;;;26.30;66.10;;;;;;5051339;28;20509;-74
2022/09/06 04:58:35;;;;;;;2.10;2.00;;;26.20;66.20;;;;;;5051496;28;20523;-75
2022/09/06 05:01:06;;;;;;;2.30;2.20;;;26.30;66.10;;;;;;5050235;28;20491;-74
2022/09/06 05:03:34;;;;;;;2.70;2.50;;;26.30;66.10;;;;;;5050582;28;20446;-77
2022/09/06 05:06:10;;;;;;;2.37;2.17;;;26.30;66.10;;;;;;5050610;28;20461;-78
2022/09/06 05:08:39;;;;;;;2.60;2.40;;;26.20;66.20;;;;;;5050172;28;20480;-78
2022/09/06 05:11:09;;;;;;;2.77;2.57;;;26.30;66.10;;;;;;5050908;28;20576;-73
2022/09/06 05:13:38;;;;;;;2.80;2.60;;;26.20;66.10;;;;;;5048999;28;20490;-75
2022/09/06 05:16:08;;;;;;;2.43;2.30;;;26.20;66.10;;;;;;5051376;28;20480;-75
2022/09/06 05:18:36;;;;;;;4.10;3.80;;;26.20;66.10;;;;;;5047570;28;20935;-77
2022/09/06 05:21:08;;;;;;;3.40;3.20;;;26.20;66.00;;;;;;5047913;28;20540;-77
2022/09/06 05:23:36;;;;;;;4.00;3.50;;;26.20;66.10;;;;;;5048817;28;20497;-74
2022/09/06 05:26:09;;;;;;;5.10;4.10;;;26.20;66.10;;;;;;5052635;28;20547;-74
2022/09/06 05:28:37;;;;;;;5.77;4.90;;;26.10;66.20;;;;;;5048302;28;20492;-75
2022/09/06 05:31:10;;;;;;;4.83;4.43;;;26.10;66.20;;;;;;5053104;28;20938;-76
2022/09/06 05:33:39;;;;;;;4.07;3.40;;;26.10;66.40;;;;;;5052393;28;20463;-77
2022/09/06 05:36:08;;;;;;;6.40;3.80;;;26.10;66.50;;;;;;5050998;28;20475;-73
2022/09/06 05:38:36;;;;;;;4.77;4.37;;;26.10;66.50;;;;;;5053271;28;20501;-73
2022/09/06 05:41:08;;;;;;;4.97;4.57;;;26.10;66.60;;;;;;5054276;28;20840;-73
2022/09/06 05:43:37;;;;;;;5.30;4.50;;;26.10;66.60;;;;;;5049729;28;20840;-73
2022/09/06 05:46:08;;;;;;;4.77;4.33;;;26.10;66.80;;;;;;5049126;28;20962;-73
2022/09/06 05:48:36;;;;;;;5.10;4.60;;;26.10;66.90;;;;;;5054101;28;20452;-75
2022/09/06 05:51:11;;;;;;;5.10;4.60;;;26.10;67.00;;;;;;5050671;28;20452;-73
2022/09/06 05:53:41;;;;;;;6.10;4.17;;;26.10;67.20;;;;;;5053473;28;20453;-78
2022/09/06 05:56:11;;;;;;;6.43;4.00;;;26.10;67.30;;;;;;5053713;28;20500;-74
2022/09/06 05:58:40;;;;;;;4.33;3.93;;;26.10;67.60;;;;;;5062764;28;20464;-74
2022/09/06 06:01:14;;;;;;;7.20;4.60;;;26.10;67.70;;;;;;5050500;28;20491;-75
2022/09/06 06:03:49;;;;;;;9.53;5.50;;;26.10;67.80;;;;;;5049788;28;20459;-75
2022/09/06 06:06:18;;;;;;;7.10;5.93;;;26.10;67.90;;;;;;5052498;28;20456;-74
2022/09/06 06:08:46;;;;;;;6.00;5.30;;;26.10;68.00;;;;;;5048969;28;20543;-74
2022/09/06 06:11:16;;;;;;;8.60;4.43;;;26.10;68.10;;;;;;5050788;28;20453;-75
2022/09/06 06:13:44;;;;;;;5.67;4.00;;;26.10;68.30;;;;;;5049002;28;20470;-74
2022/09/06 06:16:14;;;;;;;5.53;5.13;;;26.10;68.40;;;;;;5051909;28;20536;-74
2022/09/06 06:18:43;;;;;;;5.53;4.50;;;26.20;68.40;;;;;;5047783;28;20467;-76
2022/09/06 06:21:19;;;;;;;4.97;4.33;;;26.20;68.30;;;;;;5053489;28;20448;-75
2022/09/06 06:23:50;;;;;;;4.10;3.80;;;26.20;68.20;;;;;;5052978;28;20791;-75
2022/09/06 06:26:21;;;;;;;4.57;4.17;;;26.20;68.10;;;;;;5052773;28;20884;-75
2022/09/06 06:28:50;;;;;;;4.47;4.07;;;26.20;67.90;;;;;;5052529;28;20489;-80
2022/09/06 06:31:20;;;;;;;4.50;3.73;;;26.30;67.80;;;;;;5047585;28;20493;-74
2022/09/06 06:33:49;;;;;;;4.70;4.27;;;26.30;67.70;;;;;;5047806;28;20488;-76
2022/09/06 06:36:22;;;;;;;5.00;4.70;;;26.30;67.50;;;;;;5047376;28;20477;-76
2022/09/06 06:38:52;;;;;;;5.77;3.90;;;26.30;67.70;;;;;;5050982;28;20488;-76
2022/09/06 06:41:24;;;;;;;4.70;3.87;;;26.30;67.40;;;;;;5051265;28;20932;-75
2022/09/06 06:43:53;;;;;;;4.77;4.30;;;26.30;67.30;;;;;;5050077;28;20518;-76
2022/09/06 06:46:22;;;;;;;4.03;3.70;;;26.30;67.30;;;;;;5042458;28;20477;-77
2022/09/06 06:48:53;;;;;;;5.33;4.83;;;26.30;67.10;;;;;;5049742;28;20553;-78
2022/09/06 06:51:24;;;;;;;4.80;4.30;;;26.30;67.40;;;;;;5051591;28;20542;-79
2022/09/06 06:53:52;;;;;;;3.93;3.63;;;26.40;67.40;;;;;;5050437;28;20486;-75
2022/09/06 06:56:24;;;;;;;5.17;3.43;;;26.40;67.40;;;;;;5051186;28;20476;-78
2022/09/06 06:58:55;;;;;;;4.83;4.33;;;26.40;67.30;;;;;;5050912;28;20456;-77
2022/09/06 07:01:24;;;;;;;5.07;3.73;;;26.40;67.40;;;;;;5050008;28;21005;-75
2022/09/06 07:03:54;;;;;;;4.20;3.80;;;26.50;67.20;;;;;;5045990;28;20450;-76
2022/09/06 07:06:23;;;;;;;3.73;3.43;;;26.50;67.10;;;;;;5045031;28;20932;-75
2022/09/06 07:09:12;;;;;;;3.90;3.60;;;26.50;67.10;;;;;;5046007;28;20468;-78
2022/09/06 07:11:41;;;;;;;8.20;3.77;;;26.60;67.00;;;;;;5045648;28;20455;-76
2022/09/06 07:14:09;;;;;;;4.07;3.77;;;26.60;67.00;;;;;;5052386;28;20473;-77
2022/09/06 07:16:37;;;;;;;4.83;4.30;;;26.60;67.00;;;;;;5043963;28;20528;-77
2022/09/06 07:19:06;;;;;;;3.73;3.43;;;26.60;66.90;;;;;;5051561;28;20445;-77
2022/09/06 07:21:34;;;;;;;3.60;3.30;;;26.60;66.90;;;;;;5049591;28;20537;-76
2022/09/06 07:24:07;;;;;;;4.13;3.80;;;26.70;66.80;;;;;;5048164;28;20453;-81
2022/09/06 07:26:38;;;;;;;4.03;3.73;;;26.70;66.70;;;;;;5050843;28;20485;-81
2022/09/06 07:29:08;;;;;;;3.87;3.50;;;26.70;66.70;;;;;;5049282;28;20876;-78
2022/09/06 07:31:38;;;;;;;4.10;3.80;;;26.80;66.70;;;;;;5052741;28;20497;-78
2022/09/06 07:34:26;;;;;;;6.03;5.53;;;26.80;66.70;;;;;;5047977;28;20453;-78
2022/09/06 07:36:55;;;;;;;3.80;3.50;;;26.80;66.80;;;;;;5052462;28;20524;-76
2022/09/06 07:39:24;;;;;;;4.40;4.10;;;26.80;66.60;;;;;;5050946;28;20846;-75
2022/09/06 07:41:52;;;;;;;3.87;3.57;;;26.90;66.70;;;;;;5042520;28;20533;-76
2022/09/06 07:44:21;;;;;;;3.80;3.60;;;26.90;66.40;;;;;;5045520;28;20466;-76
2022/09/06 07:46:50;;;;;;;4.30;4.00;;;26.90;66.40;;;;;;5052227;28;20482;-76
2022/09/06 07:49:19;;;;;;;4.27;3.87;;;26.90;66.60;;;;;;5041557;28;20482;-76
2022/09/06 07:51:48;;;;;;;6.73;4.00;;;27.00;66.50;;;;;;5046987;28;20458;-75
2022/09/06 07:54:16;;;;;;;3.50;3.30;;;27.00;66.40;;;;;;5043372;28;20560;-75
2022/09/06 07:57:01;;;;;;;5.70;3.87;;;27.10;66.10;;;;;;5044319;28;20477;-78
2022/09/06 07:59:31;;;;;;;4.27;3.87;;;27.10;66.20;;;;;;5044732;28;20473;-76
2022/09/06 08:01:59;;;;;;;4.00;3.70;;;27.10;66.20;;;;;;5045299;28;20479;-76
2022/09/06 08:04:28;;;;;;;3.77;3.57;;;27.10;66.00;;;;;;5049427;28;20468;-76
2022/09/06 08:06:56;;;;;;;4.30;3.90;;;27.20;65.90;;;;;;5048272;28;20520;-77
2022/09/06 08:09:44;;;;;;;3.87;3.63;;;27.20;65.90;;;;;;5045632;28;20530;-78
2022/09/06 08:12:12;;;;;;;3.53;3.33;;;27.20;65.80;;;;;;5048191;28;20494;-77
2022/09/06 08:14:42;;;;;;;3.53;3.23;;;27.20;65.80;;;;;;5051513;28;20981;-78
2022/09/06 08:17:10;;;;;;;3.80;3.60;;;27.20;65.70;;;;;;5048216;28;20482;-77
2022/09/06 08:19:38;;;;;;;3.63;3.33;;;27.20;65.70;;;;;;5047837;28;20505;-72
2022/09/06 08:22:07;;;;;;;4.27;3.63;;;27.30;65.70;;;;;;5047863;28;20573;-75
2022/09/06 08:24:35;;;;;;;6.67;3.90;;;27.30;65.60;;;;;;5047573;28;20508;-78
2022/09/06 08:27:06;;;;;;;7.23;3.83;;;27.30;65.60;;;;;;5051412;28;20737;-77
2022/09/06 08:29:34;;;;;;;10.10;4.07;;;27.30;65.90;;;;;;5050774;28;20954;-77
2022/09/06 08:32:04;;;;;;;3.87;3.67;;;27.30;65.90;;;;;;5046561;28;20494;-77
2022/09/06 08:34:32;;;;;;;4.37;4.07;;;27.30;65.90;;;;;;5038322;28;20514;-77
2022/09/06 08:37:00;;;;;;;4.00;3.70;;;27.30;66.10;;;;;;5051329;28;20482;-78
2022/09/06 08:39:29;;;;;;;4.13;3.80;;;27.30;65.90;;;;;;5050171;28;20834;-77
2022/09/06 08:42:01;;;;;;;3.67;3.47;;;27.30;66.30;;;;;;5050886;28;20933;-77
2022/09/06 08:44:34;;;;;;;4.30;3.90;;;27.30;66.20;;;;;;5051849;28;20823;-79
2022/09/06 08:47:24;;;;;;;4.17;3.87;;;27.30;66.20;;;;;;5045965;28;20452;-79
2022/09/06 08:49:56;;;;;;;3.70;3.50;;;27.40;66.00;;;;;;5050202;28;20470;-79
2022/09/06 08:52:45;;;;;;;4.23;3.93;;;27.40;65.80;;;;;;5051874;28;20860;-81
2022/09/06 08:55:37;;;;;;;5.50;5.00;;;27.40;65.70;;;;;;5071788;28;20458;-80
2022/09/06 08:58:33;;;;;;;4.47;3.63;;;27.40;66.00;;;;;;5040206;28;20507;-79
2022/09/06 09:01:05;;;;;;;4.37;4.07;;;27.50;65.60;;;;;;5041758;28;20466;-78
2022/09/06 09:03:36;;;;;;;4.27;3.87;;;27.50;65.70;;;;;;5043182;28;20448;-81
2022/09/06 09:06:09;;;;;;;4.50;4.20;;;27.50;65.60;;;;;;5049757;28;20503;-77
2022/09/06 09:08:46;;;;;;;4.30;3.90;;;27.60;65.60;;;;;;5050921;28;20458;-78
2022/09/06 09:11:18;;;;;;;4.33;4.03;;;27.60;65.60;;;;;;5043206;28;20520;-78
2022/09/06 09:13:53;;;;;;;4.97;4.57;;;27.60;65.90;;;;;;5046669;28;20513;-77
2022/09/06 09:16:23;;;;;;;5.00;3.90;;;27.60;65.70;;;;;;5041565;28;20479;-76
2022/09/06 09:18:57;;;;;;;3.80;3.50;;;27.60;65.70;;;;;;5050563;28;20880;-76
2022/09/06 09:21:26;;;;;;;4.70;4.30;;;27.60;65.50;;;;;;5050544;28;20534;-74
2022/09/06 09:24:01;;;;;;;4.63;3.93;;;27.70;65.60;;;;;;5050222;28;20439;-78
2022/09/06 09:26:37;;;;;;;5.77;3.87;;;27.70;65.50;;;;;;5042952;28;20785;-79
2022/09/06 09:29:08;;;;;;;4.40;4.03;;;27.70;65.70;;;;;;5049384;28;20455;-78
2022/09/06 09:31:39;;;;;;;3.50;3.20;;;27.70;65.40;;;;;;5049377;28;20989;-79
2022/09/06 09:34:13;;;;;;;4.73;4.30;;;27.80;65.90;;;;;;5048427;28;20478;-76
2022/09/06 09:36:41;;;;;;;3.97;3.67;;;27.80;65.50;;;;;;5045008;28;20467;-78
2022/09/06 09:39:35;;;;;;;3.73;3.47;;;27.80;65.60;;;;;;5049223;28;20480;-76
2022/09/06 09:42:04;;;;;;;4.47;4.17;;;27.80;65.90;;;;;;5043501;28;20945;-80
2022/09/06 09:44:33;;;;;;;5.13;4.30;;;27.80;65.90;;;;;;5037529;28;20459;-81
2022/09/06 09:47:10;;;;;;;3.73;3.53;;;27.80;65.70;;;;;;5045229;28;20517;-79
2022/09/06 09:49:39;;;;;;;5.17;3.80;;;27.80;65.50;;;;;;5041963;28;20513;-76
2022/09/06 09:52:11;;;;;;;4.20;3.80;;;27.80;65.30;;;;;;5045020;28;20479;-77
2022/09/06 09:54:43;;;;;;;4.07;3.77;;;27.80;65.40;;;;;;5048805;28;20544;-74
2022/09/06 09:57:17;;;;;;;3.90;3.60;;;27.80;65.40;;;;;;5046547;28;20553;-77
2022/09/06 09:59:48;;;;;;;7.50;3.80;;;27.90;65.60;;;;;;5047032;28;20490;-76
2022/09/06 10:02:21;;;;;;;3.70;3.40;;;27.90;65.50;;;;;;5047613;28;20943;-77
2022/09/06 10:04:53;;;;;;;3.57;3.10;;;27.90;65.50;;;;;;5048698;28;20503;-76
2022/09/06 10:07:23;;;;;;;5.03;4.03;;;27.90;65.20;;;;;;5048636;28;20831;-76
2022/09/06 10:09:59;;;;;;;3.70;3.40;;;27.90;65.30;;;;;;5048994;28;20518;-77
2022/09/06 10:12:30;;;;;;;4.03;3.70;;;27.90;65.70;;;;;;5053171;28;20561;-75
2022/09/06 10:14:59;;;;;;;3.57;3.37;;;27.90;65.50;;;;;;5054103;28;20486;-76
2022/09/06 10:17:35;;;;;;;3.83;3.47;;;27.90;66.00;;;;;;5047605;28;20493;-76
2022/09/06 10:20:08;;;;;;;3.63;3.33;;;28.00;65.70;;;;;;5053654;28;20448;-76
2022/09/06 10:22:46;;;;;;;3.70;3.50;;;28.00;65.30;;;;;;5051655;28;20558;-76
2022/09/06 10:25:50;;;;;;;3.47;3.27;;;28.00;65.40;;;;;;5053248;28;20965;-75
2022/09/06 10:28:28;;;;;;;3.53;3.23;;;28.10;65.40;;;;;;5049083;28;20568;-77
2022/09/06 10:31:38;;;;;;;4.20;3.27;;;28.10;65.20;;;;;;5044362;28;20460;-77
2022/09/06 10:34:42;;;;;;;3.40;3.20;;;28.10;65.20;;;;;;5051237;28;20447;-77
2022/09/06 10:37:23;;;;;;;4.20;3.00;;;28.10;64.90;;;;;;5051992;28;20459;-75
2022/09/06 10:39:57;;;;;;;3.67;3.37;;;28.20;64.90;;;;;;5049380;28;20450;-77
2022/09/06 10:42:37;;;;;;;3.60;3.37;;;28.20;64.90;;;;;;5048689;28;20458;-79
2022/09/06 10:45:23;;;;;;;3.07;2.87;;;28.20;64.60;;;;;;5045619;28;20448;-81
2022/09/06 10:47:57;;;;;;;3.20;3.00;;;28.30;64.50;;;;;;5045288;28;20459;-80
2022/09/06 10:50:34;;;;;;;3.43;3.20;;;28.30;64.40;;;;;;5049926;28;20476;-75
2022/09/06 10:53:10;;;;;;;3.50;3.30;;;28.30;64.30;;;;;;5047048;28;20488;-76
2022/09/06 10:55:41;;;;;;;3.27;3.07;;;28.30;64.30;;;;;;5051040;28;20800;-75
2022/09/06 10:58:22;;;;;;;3.07;2.80;;;28.30;64.20;;;;;;5050096;28;20499;-76
2022/09/06 11:00:52;;;;;;;3.13;2.93;;;28.40;64.20;;;;;;5051525;28;20998;-79
2022/09/06 11:03:27;;;;;;;3.10;2.77;;;28.40;64.20;;;;;;5051574;28;20484;-76
2022/09/06 11:06:15;;;;;;;2.90;2.70;;;28.50;64.20;;;;;;5048340;28;20462;-75
2022/09/06 11:08:54;;;;;;;3.73;3.43;;;28.40;63.90;;;;;;5052492;28;20526;-77
2022/09/06 11:11:34;;;;;;;3.00;2.30;;;28.50;64.10;;;;;;5052005;28;20452;-78
2022/09/06 11:14:08;;;;;;;4.10;3.10;;;28.50;64.00;;;;;;5051211;28;20457;-77
2022/09/06 11:16:45;;;;;;;4.07;3.67;;;28.50;64.00;;;;;;5047711;28;20476;-77
2022/09/06 11:19:17;;;;;;;3.07;2.87;;;28.50;64.00;;;;;;5048857;28;20472;-78
2022/09/06 11:22:21;;;;;;;3.20;2.90;;;28.50;64.00;;;;;;5045396;28;20934;-73
2022/09/06 11:25:20;;;;;;;3.07;2.77;;;28.50;63.90;;;;;;5051521;28;20472;-72
2022/09/06 11:27:53;;;;;;;2.93;2.73;;;28.40;64.20;;;;;;5045543;28;20832;-73
2022/09/06 11:30:27;;;;;;;2.90;2.70;;;28.40;64.20;;;;;;5041592;28;20459;-76
2022/09/06 11:33:09;;;;;;;2.63;2.43;;;28.40;64.40;;;;;;5043845;28;20530;-72
2022/09/06 11:35:39;;;;;;;2.53;2.40;;;28.40;64.30;;;;;;5051025;28;20519;-76
2022/09/06 11:38:20;;;;;;;2.60;2.40;;;28.40;64.30;;;;;;5048771;28;20782;-73
2022/09/06 11:40:57;;;;;;;3.07;2.87;;;28.40;64.30;;;;;;5048607;28;20473;-73
2022/09/06 11:43:47;;;;;;;3.23;2.97;;;28.40;64.50;;;;;;5046420;28;20878;-77
2022/09/06 11:46:53;;;;;;;3.43;2.90;;;28.40;64.40;;;;;;5047057;28;20959;-73
2022/09/06 11:49:40;;;;;;;3.80;3.50;;;28.50;64.00;;;;;;5044823;28;20803;-74
2022/09/06 11:52:58;;;;;;;3.17;2.97;;;28.50;63.80;;;;;;5051413;28;20960;-74
2022/09/06 11:55:34;;;;;;;4.00;3.60;;;28.70;63.50;;;;;;5043886;28;20452;-72
2022/09/06 11:58:08;;;;;;;3.73;3.17;;;28.70;63.20;;;;;;5046681;28;20548;-72
2022/09/06 12:00:37;;;;;;;4.50;2.93;;;28.80;63.10;;;;;;5052714;28;20463;-73
2022/09/06 12:03:07;;;;;;;3.77;3.40;;;29.00;62.80;;;;;;5052048;28;20475;-73
2022/09/06 12:06:16;;;;;;;4.03;3.63;;;29.20;62.40;;;;;;5052150;28;20464;-73
2022/09/06 12:08:45;;;;;;;3.57;3.27;;;29.20;61.90;;;;;;5052658;28;20477;-72
2022/09/06 12:11:28;;;;;;;3.87;3.50;;;29.20;62.00;;;;;;5052778;28;20444;-72
2022/09/06 12:14:02;;;;;;;5.70;3.60;;;29.10;62.20;;;;;;5052729;28;20496;-72
2022/09/06 12:17:29;;;;;;;6.33;3.30;;;28.90;62.50;;;;;;5049134;28;20560;-73
2022/09/06 12:20:05;;;;;;;3.60;3.30;;;28.80;62.70;;;;;;5007970;28;20487;-72
2022/09/06 12:23:03;;;;;;;3.23;2.90;;;28.70;63.00;;;;;;5008356;28;20542;-72
2022/09/06 12:25:57;;;;;;;3.90;3.27;;;28.60;63.20;;;;;;5047161;28;20854;-73
2022/09/06 12:28:42;;;;;;;5.03;3.60;;;28.60;63.40;;;;;;5046283;28;20552;-73
2022/09/06 12:31:42;;;;;;;4.40;3.40;;;28.50;63.60;;;;;;5044281;28;20497;-75
2022/09/06 12:34:14;;;;;;;4.90;3.53;;;28.40;63.90;;;;;;5047557;28;20812;-73
2022/09/06 12:36:56;;;;;;;8.20;3.47;;;28.40;64.20;;;;;;5052067;28;20485;-77
2022/09/06 12:39:24;;;;;;;3.50;3.20;;;28.40;64.40;;;;;;5051577;28;20503;-74
2022/09/06 12:41:56;;;;;;;3.50;3.20;;;28.30;64.60;;;;;;5049541;28;20460;-77
2022/09/06 12:44:31;;;;;;;3.50;3.20;;;28.30;64.80;;;;;;5047442;28;20531;-71
2022/09/06 12:47:06;;;;;;;3.47;3.27;;;28.40;64.50;;;;;;5047064;28;20503;-70
2022/09/06 12:49:35;;;;;;;6.40;3.43;;;28.40;64.40;;;;;;5046345;28;20536;-71
2022/09/06 12:52:08;;;;;;;4.77;4.20;;;28.40;64.30;;;;;;5049950;28;20497;-70
2022/09/06 12:54:46;;;;;;;3.40;3.10;;;28.50;64.20;;;;;;5049344;28;20932;-70
2022/09/06 12:57:19;;;;;;;3.67;3.30;;;28.60;64.00;;;;;;5046630;28;20546;-70
2022/09/06 12:59:49;;;;;;;3.90;3.50;;;28.50;64.00;;;;;;5050101;28;20513;-69
2022/09/06 13:02:23;;;;;;;3.87;2.97;;;28.50;64.00;;;;;;5046875;28;20497;-79
2022/09/06 13:04:55;;;;;;;3.67;3.40;;;28.50;63.90;;;;;;5045872;28;20950;-75
2022/09/06 13:07:25;;;;;;;4.20;3.90;;;28.50;64.20;;;;;;5049899;28;20478;-76
2022/09/06 13:09:57;;;;;;;3.73;3.37;;;28.50;64.50;;;;;;5044955;28;20484;-74
2022/09/06 13:12:28;;;;;;;3.90;3.60;;;28.50;64.60;;;;;;5047976;28;20492;-76
2022/09/06 13:14:59;;;;;;;3.70;3.40;;;28.40;64.80;;;;;;5050576;28;20446;-76
2022/09/06 13:17:30;;;;;;;2.97;2.77;;;28.40;64.80;;;;;;5045540;28;20573;-75
2022/09/06 13:20:09;;;;;;;3.33;3.03;;;28.40;64.80;;;;;;5049164;28;20472;-76
2022/09/06 13:22:41;;;;;;;4.40;3.13;;;28.40;64.90;;;;;;5040974;28;20460;-77